Time;durP1;ratioP1;P1;durP2;ratioP2;P2;SDS_P1;SDS_P2;PMS_P1;PMS_P2;Temp;Humidity;BMP_temperature;BMP_pressure;BME280_temperature;BME280_humidity;BME280_pressure;Samples;Min_cycle;Max_cycle;Signal;HPM_P1;HPM_P2
2022/12/17 13:06:46;;;;;;;;;;;-0.50;99.90;;;;;;4937505;29;3235;-59
2022/12/17 13:09:20;;;;;;;;;;;-2.00;99.90;;;;;;4952033;28;1358;-59
2022/12/17 13:11:48;;;;;;;;;;;-0.50;99.90;;;;;;4945458;28;1112;-59
2022/12/17 13:14:14;;;;;;;;;;;-0.50;99.90;;;;;;4959735;28;1906;-59
2022/12/17 13:16:46;;;;;;;;;;;-0.60;99.90;;;;;;4967173;28;1115;-59
2022/12/17 13:19:20;;;;;;;;;;;-0.60;99.90;;;;;;4958578;28;1085;-58
2022/12/17 13:21:46;;;;;;;;;;;-0.60;99.90;;;;;;4948779;29;2855;-59
2022/12/17 13:24:21;;;;;;;;;;;-0.70;99.90;;;;;;4950901;29;1151;-59
2022/12/17 13:26:47;;;;;;;;;;;-0.80;99.90;;;;;;4956734;28;1185;-59
2022/12/17 13:29:23;;;;;;;;;;;-0.50;99.90;;;;;;4940631;28;1171;-59
2022/12/17 13:32:02;;;;;;;;;;;-0.60;99.90;;;;;;4970257;28;1100;-58
2022/12/17 13:34:35;;;;;;;;;;;-0.70;99.90;;;;;;4967204;28;1975;-59
2022/12/17 13:37:09;;;;;;;;;;;-0.70;99.90;;;;;;4949260;28;1206;-60
2022/12/17 13:39:35;;;;;;;;;;;-0.70;99.90;;;;;;4950572;29;1107;-59
2022/12/17 13:42:01;;;;;;;;;;;-0.40;99.90;;;;;;4950629;28;1108;-59
2022/12/17 13:44:33;;;;;;;;;;;-0.70;99.90;;;;;;4953259;28;1140;-60
2022/12/17 13:46:59;;;;;;;;;;;-0.70;99.90;;;;;;4962133;28;1159;-60
2022/12/17 13:49:26;;;;;;;;;;;-0.70;99.90;;;;;;4954410;28;1128;-59
2022/12/17 13:52:01;;;;;;;;;;;-0.60;99.90;;;;;;4946390;28;2377;-59
2022/12/17 13:54:26;;;;;;;;;;;-0.60;99.90;;;;;;4953244;29;1970;-59
2022/12/17 13:56:53;;;;;;;;;;;-0.70;99.90;;;;;;4954911;28;1288;-59
2022/12/17 13:59:20;;;;;;;;;;;-0.70;99.90;;;;;;4944167;29;1290;-59
2022/12/17 14:01:48;;;;;;;;;;;-0.40;99.90;;;;;;4954218;28;1219;-59
2022/12/17 14:04:23;;;;;;;;;;;-0.70;99.90;;;;;;4952904;29;1064;-59
2022/12/17 14:06:50;;;;;;;;;;;-0.70;99.90;;;;;;4955382;28;1286;-59
2022/12/17 14:09:17;;;;;;;;;;;-0.80;99.90;;;;;;4953421;29;1293;-60
2022/12/17 14:14:28;;;;;;;;;;;-0.80;99.90;;;;;;4953121;28;1966;-59
2022/12/17 14:16:54;;;;;;;;;;;-0.80;99.90;;;;;;4948590;29;1175;-59
2022/12/17 14:19:20;;;;;;;;;;;-0.90;99.90;;;;;;4952610;28;1228;-59
2022/12/17 14:21:46;;;;;;;;;;;-0.80;99.90;;;;;;4971838;28;1100;-59
2022/12/17 14:24:12;;;;;;;;;;;-0.30;99.90;;;;;;4972947;28;1135;-59
2022/12/17 14:26:51;;;;;;;;;;;-0.80;99.90;;;;;;4962766;28;1149;-60
2022/12/17 14:29:22;;;;;;;;;;;-0.80;99.90;;;;;;4966628;28;1149;-58
2022/12/17 14:31:54;;;;;;;;;;;-0.80;99.90;;;;;;4966571;28;1083;-58
2022/12/17 14:34:21;;;;;;;;;;;-0.70;99.90;;;;;;4952422;29;1906;-58
2022/12/17 14:36:52;;;;;;;;;;;-0.80;99.90;;;;;;4953091;28;1124;-58
2022/12/17 14:39:21;;;;;;;;;;;-0.70;99.90;;;;;;4952327;29;1648;-58
2022/12/17 14:44:31;;;;;;;;;;;-0.20;99.90;;;;;;4951785;29;1408;-58
2022/12/17 14:47:16;;;;;;;;;;;-0.80;99.90;;;;;;4948974;28;1233;-58
2022/12/17 14:50:03;;;;;;;;;;;-0.80;99.90;;;;;;4952850;28;1195;-58
2022/12/17 14:52:31;;;;;;;;;;;-0.90;99.90;;;;;;4953022;29;1371;-57
2022/12/17 14:54:57;;;;;;;;;;;-1.10;99.90;;;;;;4952042;28;1907;-58
2022/12/17 14:57:23;;;;;;;;;;;-1.20;99.90;;;;;;4969971;28;1182;-57
2022/12/17 14:59:51;;;;;;;;;;;-1.10;99.90;;;;;;4970751;28;1135;-57
2022/12/17 15:02:17;;;;;;;;;;;-1.30;99.90;;;;;;4923552;29;1354;-58
2022/12/17 15:04:43;;;;;;;;;;;-1.40;99.90;;;;;;4947090;28;1349;-58
2022/12/17 15:07:12;;;;;;;;;;;-1.00;99.90;;;;;;4951850;29;1174;-58
2022/12/17 15:09:39;;;;;;;;;;;-1.30;99.90;;;;;;4952703;29;1387;-58
2022/12/17 15:12:05;;;;;;;;;;;-1.30;99.90;;;;;;4955485;28;1131;-58
2022/12/17 15:14:30;;;;;;;;;;;-1.30;99.90;;;;;;4952275;28;1926;-58
2022/12/17 15:16:57;;;;;;;;;;;-1.40;99.90;;;;;;4952370;29;1116;-58
2022/12/17 15:19:23;;;;;;;;;;;-1.20;99.90;;;;;;4952295;29;1112;-58
2022/12/17 15:21:49;;;;;;;;;;;-1.50;99.90;;;;;;4951303;28;1288;-58
2022/12/17 15:24:17;;;;;;;;;;;-1.50;99.90;;;;;;4940121;29;1515;-58
2022/12/17 15:26:43;;;;;;;;;;;-1.50;99.90;;;;;;4952115;29;1167;-58
2022/12/17 15:29:08;;;;;;;;;;;-1.50;99.90;;;;;;4948074;29;1538;-58
2022/12/17 15:31:34;;;;;;;;;;;-1.50;99.90;;;;;;4958391;28;1176;-58
2022/12/17 15:34:00;;;;;;;;;;;-0.90;99.90;;;;;;4971043;28;1911;-58
2022/12/17 15:36:25;;;;;;;;;;;-1.50;99.90;;;;;;4970956;28;1111;-58
2022/12/17 15:38:51;;;;;;;;;;;-1.20;99.90;;;;;;4955753;28;1600;-58
2022/12/17 15:44:01;;;;;;;;;;;-1.50;99.90;;;;;;4951658;29;1116;-58
2022/12/17 15:46:28;;;;;;;;;;;-1.60;99.90;;;;;;4951800;28;1112;-58
2022/12/17 15:48:55;;;;;;;;;;;-1.70;99.90;;;;;;4966871;28;1236;-58
2022/12/17 15:51:22;;;;;;;;;;;-1.80;99.90;;;;;;4953601;28;2862;-58
2022/12/17 15:53:49;;;;;;;;;;;-1.80;99.90;;;;;;4951619;29;1910;-58
2022/12/17 15:56:18;;;;;;;;;;;-1.60;99.90;;;;;;4951518;28;1155;-58
2022/12/17 15:58:44;;;;;;;;;;;-1.50;99.90;;;;;;4967241;28;1175;-58
2022/12/17 16:01:09;;;;;;;;;;;-1.50;99.90;;;;;;4949894;28;1522;-58
2022/12/17 16:03:35;;;;;;;;;;;-1.80;99.90;;;;;;4950793;29;1167;-58
2022/12/17 16:06:01;;;;;;;;;;;-1.80;99.90;;;;;;4951098;28;1273;-58
2022/12/17 16:08:26;;;;;;;;;;;-1.80;99.90;;;;;;4950189;28;1551;-58
2022/12/17 16:10:52;;;;;;;;;;;-1.80;99.90;;;;;;4950630;28;1167;-58
2022/12/17 16:13:18;;;;;;;;;;;-1.80;99.90;;;;;;4944917;28;1625;-58
2022/12/17 16:15:43;;;;;;;;;;;-1.80;99.90;;;;;;4950154;28;1926;-58
2022/12/17 16:18:09;;;;;;;;;;;-1.80;99.90;;;;;;4950653;29;1132;-58
2022/12/17 16:20:35;;;;;;;;;;;-1.80;99.90;;;;;;4943146;28;1305;-58
2022/12/17 16:23:01;;;;;;;;;;;-1.80;99.90;;;;;;4950336;28;1194;-58
2022/12/17 16:25:26;;;;;;;;;;;-1.80;99.90;;;;;;4969952;28;1092;-58
2022/12/17 16:27:52;;;;;;;;;;;-1.90;99.90;;;;;;4970693;28;1099;-58
2022/12/17 16:30:18;;;;;;;;;;;-2.00;99.90;;;;;;4970489;28;1112;-58
2022/12/17 16:32:43;;;;;;;;;;;-2.00;99.90;;;;;;4959199;28;1099;-58
2022/12/17 16:35:09;;;;;;;;;;;-2.10;99.90;;;;;;4970590;28;1918;-58
2022/12/17 16:37:35;;;;;;;;;;;-2.00;99.90;;;;;;4965109;28;1152;-58
2022/12/17 16:40:00;;;;;;;;;;;-2.20;99.90;;;;;;4950347;28;1179;-58
2022/12/17 16:42:26;;;;;;;;;;;-1.80;99.90;;;;;;4966471;28;1195;-58
2022/12/17 16:44:52;;;;;;;;;;;-2.40;99.90;;;;;;4970368;28;1158;-58
2022/12/17 16:47:17;;;;;;;;;;;-2.30;99.90;;;;;;4947906;28;1109;-58
2022/12/17 16:49:43;;;;;;;;;;;-2.40;99.90;;;;;;4950951;28;1108;-58
2022/12/17 16:52:09;;;;;;;;;;;-2.30;99.90;;;;;;4966162;28;1139;-58
2022/12/17 16:54:34;;;;;;;;;;;-1.90;99.90;;;;;;4969054;28;1910;-57
2022/12/17 16:57:01;;;;;;;;;;;-0.60;99.90;;;;;;4970174;28;1093;-58
2022/12/17 16:59:26;;;;;;;;;;;-2.40;99.90;;;;;;4964433;28;1153;-58
2022/12/17 17:01:52;;;;;;;;;;;-2.40;99.90;;;;;;4951621;28;1545;-58
2022/12/17 17:04:19;;;;;;;;;;;-2.30;99.90;;;;;;4950972;29;1112;-58
2022/12/17 17:06:46;;;;;;;;;;;-2.40;99.90;;;;;;4949649;28;1088;-58
2022/12/17 17:09:13;;;;;;;;;;;-2.40;99.90;;;;;;4952888;28;1314;-58
2022/12/17 17:11:38;;;;;;;;;;;-2.40;99.90;;;;;;4953987;28;1135;-58
2022/12/17 17:14:05;;;;;;;;;;;-2.40;99.90;;;;;;4958462;28;1911;-58
2022/12/17 17:16:32;;;;;;;;;;;-2.30;99.90;;;;;;4963440;28;1174;-58
2022/12/17 17:18:58;;;;;;;;;;;-2.00;99.90;;;;;;4968916;28;1079;-58
2022/12/17 17:21:26;;;;;;;;;;;-2.20;99.90;;;;;;4972668;28;1189;-58
2022/12/17 17:23:55;;;;;;;;;;;-2.10;99.90;;;;;;4974187;28;1217;-58
2022/12/17 17:26:20;;;;;;;;;;;-2.10;99.90;;;;;;4972534;28;1164;-58
2022/12/17 17:28:47;;;;;;;;;;;-2.20;99.90;;;;;;4973274;28;1170;-58
2022/12/17 17:31:13;;;;;;;;;;;-2.30;99.90;;;;;;4973966;28;1119;-58
2022/12/17 17:33:41;;;;;;;;;;;-1.60;99.90;;;;;;4951007;29;1922;-58
2022/12/17 17:36:09;;;;;;;;;;;-2.30;99.90;;;;;;4970754;28;1147;-58
2022/12/17 17:38:35;;;;;;;;;;;-2.30;99.90;;;;;;4960522;28;1292;-58
2022/12/17 17:41:01;;;;;;;;;;;-2.20;99.90;;;;;;4954124;29;1175;-58
2022/12/17 17:43:26;;;;;;;;;;;-2.30;99.90;;;;;;4939834;29;1142;-58
2022/12/17 17:45:52;;;;;;;;;;;-2.40;99.90;;;;;;4955216;28;1195;-58
2022/12/17 17:48:18;;;;;;;;;;;-2.50;99.90;;;;;;4955986;28;1202;-57
2022/12/17 17:50:55;;;;;;;;;;;-2.00;99.90;;;;;;4958692;28;3008;-58
2022/12/17 17:53:21;;;;;;;;;;;-2.50;99.90;;;;;;4945892;29;3081;-57
2022/12/17 17:55:46;;;;;;;;;;;-2.00;99.90;;;;;;4953247;29;1915;-58
2022/12/17 17:58:13;;;;;;;;;;;-2.40;99.90;;;;;;4953004;29;1144;-58
2022/12/17 18:00:39;;;;;;;;;;;-2.50;99.90;;;;;;4955565;28;1296;-58
2022/12/17 18:03:04;;;;;;;;;;;-2.60;99.90;;;;;;4955412;28;1309;-58
2022/12/17 18:05:30;;;;;;;;;;;-2.00;99.90;;;;;;4960001;28;1123;-58
2022/12/17 18:07:56;;;;;;;;;;;-2.50;99.90;;;;;;4953758;29;1183;-58
2022/12/17 18:10:22;;;;;;;;;;;-2.50;99.90;;;;;;4957913;28;1383;-58
2022/12/17 18:15:32;;;;;;;;;;;-2.50;99.90;;;;;;4941954;29;1922;-58
2022/12/17 18:17:58;;;;;;;;;;;-2.40;99.90;;;;;;4953145;28;1399;-58
2022/12/17 18:20:24;;;;;;;;;;;-2.40;99.90;;;;;;4972972;28;1186;-58
2022/12/17 18:22:49;;;;;;;;;;;-2.40;99.90;;;;;;4972816;28;1024;-58
2022/12/17 18:25:15;;;;;;;;;;;-2.40;99.90;;;;;;4971987;28;1175;-58
2022/12/17 18:27:42;;;;;;;;;;;-2.40;99.90;;;;;;4960778;28;1271;-58
2022/12/17 18:30:08;;;;;;;;;;;-2.50;99.90;;;;;;4935963;28;1765;-58
2022/12/17 18:32:33;;;;;;;;;;;-2.40;99.90;;;;;;4951995;29;1128;-57
2022/12/17 18:34:59;;;;;;;;;;;-2.30;99.90;;;;;;4953448;29;1914;-58
2022/12/17 18:37:25;;;;;;;;;;;-2.40;99.90;;;;;;4962607;28;1102;-58
2022/12/17 18:39:50;;;;;;;;;;;-1.80;99.90;;;;;;4952379;28;1185;-58
2022/12/17 18:45:00;;;;;;;;;;;-2.40;99.90;;;;;;4952935;28;1208;-58
2022/12/17 18:47:26;;;;;;;;;;;-2.40;99.90;;;;;;4952309;29;1085;-58
2022/12/17 18:49:52;;;;;;;;;;;-2.40;99.90;;;;;;4953086;29;1156;-58
2022/12/17 18:52:18;;;;;;;;;;;-2.40;99.90;;;;;;4952312;29;1096;-57
2022/12/17 18:54:44;;;;;;;;;;;-2.50;99.90;;;;;;4961964;28;1964;-58
2022/12/17 18:57:09;;;;;;;;;;;-2.50;99.90;;;;;;4972410;28;1162;-58
2022/12/17 18:59:36;;;;;;;;;;;-2.60;99.90;;;;;;4971462;28;1115;-57
2022/12/17 19:02:01;;;;;;;;;;;-2.40;99.90;;;;;;4955440;28;1585;-58
2022/12/17 19:04:27;;;;;;;;;;;-2.40;99.90;;;;;;4968913;28;1095;-58
2022/12/17 19:06:53;;;;;;;;;;;-2.40;99.90;;;;;;4951634;29;1191;-58
2022/12/17 19:09:20;;;;;;;;;;;-2.50;99.90;;;;;;4952509;29;1344;-58
2022/12/17 19:11:46;;;;;;;;;;;-2.50;99.90;;;;;;4955628;28;1131;-57
2022/12/17 19:14:12;;;;;;;;;;;-2.50;99.90;;;;;;4961235;28;1914;-58
2022/12/17 19:16:38;;;;;;;;;;;-2.60;99.90;;;;;;4971267;28;1197;-57
2022/12/17 19:19:04;;;;;;;;;;;-2.60;99.90;;;;;;4972047;28;1166;-57
2022/12/17 19:21:30;;;;;;;;;;;-2.70;99.90;;;;;;4953213;28;1204;-58
2022/12/17 19:23:57;;;;;;;;;;;-2.40;99.90;;;;;;4952438;29;1021;-58
2022/12/17 19:26:24;;;;;;;;;;;-2.70;99.90;;;;;;4952159;29;1148;-58
2022/12/17 19:28:50;;;;;;;;;;;-2.60;99.90;;;;;;4951170;28;1235;-57
2022/12/17 19:31:18;;;;;;;;;;;-2.60;99.90;;;;;;4951015;28;1116;-58
2022/12/17 19:33:43;;;;;;;;;;;-2.60;99.90;;;;;;4952232;28;1911;-58
2022/12/17 19:36:10;;;;;;;;;;;-2.60;99.90;;;;;;4951788;29;1144;-57
2022/12/17 19:38:36;;;;;;;;;;;-2.80;99.90;;;;;;4951941;28;1246;-58
2022/12/17 19:41:03;;;;;;;;;;;-2.70;99.90;;;;;;4952237;28;1144;-58
2022/12/17 19:43:30;;;;;;;;;;;-2.70;99.90;;;;;;4950747;28;1084;-58
2022/12/17 19:46:04;;;;;;;;;;;-2.60;99.90;;;;;;4947783;28;3190;-58
2022/12/17 19:48:31;;;;;;;;;;;-2.50;99.90;;;;;;4950747;28;3665;-58
2022/12/17 19:50:57;;;;;;;;;;;-2.50;99.90;;;;;;4952582;28;3271;-57
2022/12/17 19:53:25;;;;;;;;;;;-2.50;99.90;;;;;;4951069;29;1227;-58
2022/12/17 19:55:53;;;;;;;;;;;-2.30;99.90;;;;;;4948338;28;1976;-57
2022/12/17 19:58:19;;;;;;;;;;;-2.70;99.90;;;;;;4963682;28;1219;-58
2022/12/17 20:00:45;;;;;;;;;;;-2.60;99.90;;;;;;4950719;29;1246;-58
2022/12/17 20:03:10;;;;;;;;;;;-2.60;99.90;;;;;;4950798;28;2756;-58
2022/12/17 20:05:36;;;;;;;;;;;-2.30;99.90;;;;;;4926781;29;1344;-58
2022/12/17 20:08:02;;;;;;;;;;;-2.50;99.90;;;;;;4925772;29;1144;-58
2022/12/17 20:10:28;;;;;;;;;;;-2.60;99.90;;;;;;4931744;29;1375;-58
2022/12/17 20:12:53;;;;;;;;;;;-2.60;99.90;;;;;;4934845;29;1078;-58
2022/12/17 20:15:19;;;;;;;;;;;-2.60;99.90;;;;;;4931992;29;1950;-57
2022/12/17 20:17:45;;;;;;;;;;;-2.80;99.90;;;;;;4931593;29;1037;-58
2022/12/17 20:20:11;;;;;;;;;;;-2.20;99.90;;;;;;4932134;29;1136;-58
2022/12/17 20:22:36;;;;;;;;;;;-2.90;99.90;;;;;;4930781;29;1182;-58
2022/12/17 20:25:06;;;;;;;;;;;-2.80;99.90;;;;;;4930740;29;1135;-58
2022/12/17 20:27:32;;;;;;;;;;;-2.80;99.90;;;;;;4931982;29;1127;-58
2022/12/17 20:29:57;;;;;;;;;;;-2.80;99.90;;;;;;4931566;29;1239;-58
2022/12/17 20:32:23;;;;;;;;;;;-2.80;99.90;;;;;;4930200;29;1221;-58
2022/12/17 20:34:49;;;;;;;;;;;-2.80;99.90;;;;;;4931618;29;1976;-58
2022/12/17 20:37:14;;;;;;;;;;;-2.70;99.90;;;;;;4932024;29;1120;-58
2022/12/17 20:39:40;;;;;;;;;;;-2.80;99.90;;;;;;4930963;29;1159;-58
2022/12/17 20:42:07;;;;;;;;;;;-2.80;99.90;;;;;;4931982;29;1108;-57
2022/12/17 20:44:33;;;;;;;;;;;-2.80;99.90;;;;;;4931799;29;1143;-58
2022/12/17 20:47:00;;;;;;;;;;;-2.90;99.90;;;;;;4931451;29;1029;-58
2022/12/17 20:49:25;;;;;;;;;;;-2.90;99.90;;;;;;4931530;29;1186;-58
2022/12/17 20:51:51;;;;;;;;;;;-3.00;99.90;;;;;;4930832;29;1103;-58
2022/12/17 20:54:17;;;;;;;;;;;-3.00;99.90;;;;;;4931570;29;1911;-58
2022/12/17 20:56:43;;;;;;;;;;;-3.00;99.90;;;;;;4931425;29;1103;-58
2022/12/17 20:59:12;;;;;;;;;;;-2.90;99.90;;;;;;4930980;29;1147;-57
2022/12/17 21:01:38;;;;;;;;;;;-2.90;99.90;;;;;;4931845;29;1566;-58
2022/12/17 21:04:06;;;;;;;;;;;-2.80;99.90;;;;;;4931560;29;1180;-58
2022/12/17 21:06:36;;;;;;;;;;;-2.80;99.90;;;;;;4942993;28;1056;-58
2022/12/17 21:09:02;;;;;;;;;;;-2.70;99.90;;;;;;4950926;28;1288;-58
2022/12/17 21:11:29;;;;;;;;;;;-2.80;99.90;;;;;;4954495;28;1140;-58
2022/12/17 21:13:54;;;;;;;;;;;-2.80;99.90;;;;;;4956582;28;1934;-58
2022/12/17 21:16:22;;;;;;;;;;;-2.70;99.90;;;;;;4968002;28;1192;-58
2022/12/17 21:18:47;;;;;;;;;;;-2.90;99.90;;;;;;4970283;28;1099;-57
2022/12/17 21:21:16;;;;;;;;;;;-2.90;99.90;;;;;;4969122;28;1202;-58
2022/12/17 21:23:43;;;;;;;;;;;-2.90;99.90;;;;;;4965761;28;1171;-57
2022/12/17 21:26:08;;;;;;;;;;;-3.00;99.90;;;;;;4952367;28;1151;-58
2022/12/17 21:28:35;;;;;;;;;;;-3.10;99.90;;;;;;4949429;29;1214;-58
2022/12/17 21:31:01;;;;;;;;;;;-3.10;99.90;;;;;;4952518;28;1214;-58
2022/12/17 21:33:27;;;;;;;;;;;-3.10;99.90;;;;;;4950240;28;1235;-58
2022/12/17 21:35:58;;;;;;;;;;;-3.10;99.90;;;;;;4949997;28;1911;-58
2022/12/17 21:38:23;;;;;;;;;;;-3.10;99.90;;;;;;4949814;28;1314;-58
2022/12/17 21:40:49;;;;;;;;;;;-3.10;99.90;;;;;;4952584;28;1278;-57
2022/12/17 21:43:15;;;;;;;;;;;-3.00;99.90;;;;;;4949185;28;1210;-58
2022/12/17 21:45:41;;;;;;;;;;;-3.00;99.90;;;;;;4950972;28;1252;-58
2022/12/17 21:48:08;;;;;;;;;;;-2.90;99.90;;;;;;4949556;29;1321;-57
2022/12/17 21:50:37;;;;;;;;;;;-2.90;99.90;;;;;;4952694;28;1111;-58
2022/12/17 21:53:03;;;;;;;;;;;-3.00;99.90;;;;;;4950015;29;1195;-58
2022/12/17 21:55:29;;;;;;;;;;;-3.00;99.90;;;;;;4951841;28;1910;-57
2022/12/17 21:57:55;;;;;;;;;;;-3.10;99.90;;;;;;4950145;28;1068;-57
2022/12/17 22:00:20;;;;;;;;;;;-3.10;99.90;;;;;;4951033;28;1194;-58
2022/12/17 22:02:46;;;;;;;;;;;-3.10;99.90;;;;;;4949467;29;1215;-57
2022/12/17 22:05:12;;;;;;;;;;;-3.10;99.90;;;;;;4951922;28;1270;-57
2022/12/17 22:07:37;;;;;;;;;;;-3.00;99.90;;;;;;4952979;28;1183;-58
2022/12/17 22:10:03;;;;;;;;;;;-2.90;99.90;;;;;;4944082;29;1276;-58
2022/12/17 22:15:13;;;;;;;;;;;-2.80;99.90;;;;;;4954796;28;1907;-58
2022/12/17 22:17:39;;;;;;;;;;;-3.00;99.90;;;;;;4952324;28;1257;-58
2022/12/17 22:20:05;;;;;;;;;;;-3.30;99.90;;;;;;4953106;28;1281;-57
2022/12/17 22:22:30;;;;;;;;;;;-3.40;99.90;;;;;;4953902;28;1223;-58
2022/12/17 22:24:56;;;;;;;;;;;-2.90;99.90;;;;;;4954515;28;1124;-57
2022/12/17 22:27:22;;;;;;;;;;;-3.30;99.90;;;;;;4952937;28;1144;-58
2022/12/17 22:33:05;;;;;;;;;;;-3.20;99.90;;;;;;4953017;29;1143;-57
2022/12/17 22:35:33;;;;;;;;;;;-3.20;99.90;;;;;;4964490;28;1911;-58
2022/12/17 22:37:59;;;;;;;;;;;-3.20;99.90;;;;;;4959559;28;1092;-58
2022/12/17 22:40:25;;;;;;;;;;;-3.20;99.90;;;;;;4953561;29;1171;-58
2022/12/17 22:45:37;;;;;;;;;;;-3.30;99.90;;;;;;4966847;28;965;-57
2022/12/17 22:48:03;;;;;;;;;;;-3.20;99.90;;;;;;4959944;28;1121;-58
2022/12/17 22:50:28;;;;;;;;;;;-3.20;99.90;;;;;;4952957;29;1080;-57
2022/12/17 22:52:54;;;;;;;;;;;-3.20;99.90;;;;;;4960569;28;1121;-58
2022/12/17 22:55:19;;;;;;;;;;;-3.20;99.90;;;;;;4971933;28;1906;-57
2022/12/17 22:57:45;;;;;;;;;;;-3.20;99.90;;;;;;4972079;28;1099;-57
2022/12/17 23:00:15;;;;;;;;;;;-3.20;99.90;;;;;;4971613;28;1103;-57
2022/12/17 23:02:41;;;;;;;;;;;-3.20;99.90;;;;;;4954022;28;2431;-58
2022/12/17 23:05:06;;;;;;;;;;;-3.20;99.90;;;;;;4952246;29;1316;-57
2022/12/17 23:07:32;;;;;;;;;;;-3.30;99.90;;;;;;4952399;29;1160;-57
2022/12/17 23:09:58;;;;;;;;;;;-3.40;99.90;;;;;;4954646;28;1284;-57
2022/12/17 23:15:08;;;;;;;;;;;-3.10;99.90;;;;;;4958884;28;1910;-57
2022/12/17 23:17:33;;;;;;;;;;;-3.20;99.90;;;;;;4953936;28;1112;-58
2022/12/17 23:19:59;;;;;;;;;;;-3.20;99.90;;;;;;4951371;28;1143;-58
2022/12/17 23:22:25;;;;;;;;;;;-3.20;99.90;;;;;;4954355;28;1258;-57
2022/12/17 23:24:50;;;;;;;;;;;-3.10;99.90;;;;;;4954488;28;1203;-57
2022/12/17 23:27:16;;;;;;;;;;;-2.80;99.90;;;;;;4951246;28;1250;-57
2022/12/17 23:29:42;;;;;;;;;;;-3.20;99.90;;;;;;4970046;28;1155;-58
2022/12/17 23:32:07;;;;;;;;;;;-3.20;99.90;;;;;;4971974;28;1178;-57
2022/12/17 23:34:33;;;;;;;;;;;-2.80;99.90;;;;;;4970779;28;1911;-58
2022/12/17 23:36:59;;;;;;;;;;;-3.30;99.90;;;;;;4955561;28;1218;-57
2022/12/17 23:39:24;;;;;;;;;;;-3.30;99.90;;;;;;4934885;29;1167;-57
2022/12/17 23:41:52;;;;;;;;;;;-3.30;99.90;;;;;;4951300;29;1163;-58
2022/12/17 23:44:18;;;;;;;;;;;-3.30;99.90;;;;;;4950910;28;1736;-58
2022/12/17 23:46:43;;;;;;;;;;;-3.40;99.90;;;;;;4965250;28;1286;-57
2022/12/17 23:49:09;;;;;;;;;;;-3.40;99.90;;;;;;4934950;29;1444;-58
2022/12/17 23:51:34;;;;;;;;;;;-3.50;99.90;;;;;;4956404;28;1218;-57
2022/12/17 23:54:00;;;;;;;;;;;-3.00;99.90;;;;;;4952607;28;1914;-58
2022/12/17 23:56:26;;;;;;;;;;;-3.50;99.90;;;;;;4962644;28;1049;-58
2022/12/17 23:58:53;;;;;;;;;;;-3.50;99.90;;;;;;4971141;28;1130;-57
